PWSweather.com
Personal Weather Stations
Station Observations
GRD01
Warsaw, LesznoPL 05-084

WarsawLesznoPL 05-084

Lat: 52.257404, Lon: 20.564847

Elevation: 298

Station Type: WH3080

http://pogoda.kampinos.waw.pl

High Low Average
Temperature 75.7°F24.3°C 56.8°F13.8°C 64.8°F18.2°C
Dew Point 52.3°F11.3°C 47.0°F8.3°C 49.9°F9.9°C
Winds 9.8 mph 15.8 kmh Calm Calm 2.0 mph S3.2 kmh S
Wind Gusts 14.5 mph23.3 kmh 0.7 mph1.1 kmh 5.0 mph8.0 kmh
Humidity 81% 37% 61%
Pressure 30.59 in1035.9 mb 30.44 in1030.8 mb -
Precipitation 0.00 in0.0 mm - -
Hour Temp Dew Point Humidity Winds Wind Gusts Pressure Precip Precip Rate Daily Precip Total
12:00 AM 58.3°F14.6°C 51.4°F10.8°C 78% 0.7 mph SW1.1 kmh SW 2.2 mph3.5 kmh 30.59 in1035.9 mb 0.00 in0.0 mm 0.00 in0.0 mm 0.00 in0.0 mm
12:05 AM 58.3°F14.6°C 51.4°F10.8°C 78% 0.7 mph SW1.1 kmh SW 1.6 mph2.6 kmh 30.14 in1020.7 mb 0.00 in0.0 mm 0.00 in0.0 mm 0.00 in0.0 mm
12:15 AM 58.5°F14.7°C 51.6°F10.9°C 78% 2.2 mph SW3.5 kmh SW 3.1 mph5.0 kmh 30.59 in1035.9 mb 0.00 in0.0 mm 0.00 in0.0 mm 0.00 in0.0 mm
12:30 AM 58.6°F14.8°C 51.8°F11.0°C 78% 2.2 mph SW3.5 kmh SW 3.8 mph6.1 kmh 30.59 in1035.9 mb 0.00 in0.0 mm 0.00 in0.0 mm 0.00 in0.0 mm
12:35 AM 58.6°F14.8°C 51.8°F11.0°C 78% 0.7 mph SW1.1 kmh SW 2.2 mph3.5 kmh 30.15 in1021.0 mb 0.00 in0.0 mm 0.00 in0.0 mm 0.00 in0.0 mm
12:45 AM 59.0°F15.0°C 51.1°F10.6°C 75% 0.7 mph S1.1 kmh S 4.5 mph7.2 kmh 30.59 in1035.9 mb 0.00 in0.0 mm 0.00 in0.0 mm 0.00 in0.0 mm
01:00 AM 59.2°F15.1°C 50.9°F10.5°C 74% 3.8 mph S6.1 kmh S 5.4 mph8.7 kmh 30.59 in1035.9 mb 0.00 in0.0 mm 0.00 in0.0 mm 0.00 in0.0 mm
01:05 AM 59.2°F15.1°C 50.9°F10.5°C 74% 3.8 mph S6.1 kmh S 5.4 mph8.7 kmh 30.14 in1020.7 mb 0.00 in0.0 mm 0.00 in0.0 mm 0.00 in0.0 mm
01:15 AM 59.4°F15.2°C 50.7°F10.4°C 73% 1.6 mph SSW2.6 kmh SSW 4.5 mph7.2 kmh 30.59 in1035.9 mb 0.00 in0.0 mm 0.00 in0.0 mm 0.00 in0.0 mm
01:30 AM 59.2°F15.1°C 50.5°F10.3°C 73% 1.6 mph SSW2.6 kmh SSW 4.5 mph7.2 kmh 30.58 in1035.6 mb 0.00 in0.0 mm 0.00 in0.0 mm 0.00 in0.0 mm
01:35 AM 59.2°F15.1°C 50.5°F10.3°C 73% 3.1 mph S5.0 kmh S 3.8 mph6.1 kmh 30.14 in1020.7 mb 0.00 in0.0 mm 0.00 in0.0 mm 0.00 in0.0 mm
01:45 AM 58.8°F14.9°C 50.2°F10.1°C 73% 3.1 mph SSW5.0 kmh SSW 3.8 mph6.1 kmh 30.59 in1035.9 mb 0.00 in0.0 mm 0.00 in0.0 mm 0.00 in0.0 mm
02:00 AM 58.3°F14.6°C 49.7°F9.8°C 73% 2.2 mph SSW3.5 kmh SSW 6.0 mph9.7 kmh 30.58 in1035.6 mb 0.00 in0.0 mm 0.00 in0.0 mm 0.00 in0.0 mm
02:05 AM 58.5°F14.7°C 49.8°F9.9°C 73% 3.1 mph S5.0 kmh S 4.5 mph7.2 kmh 30.14 in1020.7 mb 0.00 in0.0 mm 0.00 in0.0 mm 0.00 in0.0 mm
02:15 AM 57.6°F14.2°C 49.3°F9.6°C 74% 0.7 mph S1.1 kmh S 2.2 mph3.5 kmh 30.58 in1035.6 mb 0.00 in0.0 mm 0.00 in0.0 mm 0.00 in0.0 mm
02:30 AM 56.8°F13.8°C 49.0°F9.4°C 75% 0.7 mph S1.1 kmh S 2.2 mph3.5 kmh 30.58 in1035.6 mb 0.00 in0.0 mm 0.00 in0.0 mm 0.00 in0.0 mm
02:35 AM 56.8°F13.8°C 49.0°F9.4°C 75% 1.6 mph S2.6 kmh S 2.2 mph3.5 kmh 30.14 in1020.7 mb 0.00 in0.0 mm 0.00 in0.0 mm 0.00 in0.0 mm
02:45 AM 56.8°F13.8°C 49.4°F9.7°C 76% 0.7 mph S1.1 kmh S 2.2 mph3.5 kmh 30.58 in1035.6 mb 0.00 in0.0 mm 0.00 in0.0 mm 0.00 in0.0 mm
03:00 AM 56.8°F13.8°C 49.7°F9.8°C 77% Calm Calm 1.6 mph2.6 kmh 30.58 in1035.6 mb 0.00 in0.0 mm 0.00 in0.0 mm 0.00 in0.0 mm
03:05 AM 56.8°F13.8°C 49.7°F9.8°C 77% Calm Calm 1.6 mph2.6 kmh 30.14 in1020.7 mb 0.00 in0.0 mm 0.00 in0.0 mm 0.00 in0.0 mm
03:15 AM 57.0°F13.9°C 50.2°F10.1°C 78% Calm Calm 1.6 mph2.6 kmh 30.58 in1035.6 mb 0.00 in0.0 mm 0.00 in0.0 mm 0.00 in0.0 mm
03:30 AM 57.0°F13.9°C 50.6°F10.3°C 79% Calm Calm 1.6 mph2.6 kmh 30.58 in1035.6 mb 0.00 in0.0 mm 0.00 in0.0 mm 0.00 in0.0 mm
03:35 AM 57.0°F13.9°C 50.6°F10.3°C 79% Calm Calm -- 30.13 in1020.3 mb 0.00 in0.0 mm 0.00 in0.0 mm 0.00 in0.0 mm
03:45 AM 57.2°F14.0°C 51.1°F10.6°C 80% Calm Calm 0.7 mph1.1 kmh 30.58 in1035.6 mb 0.00 in0.0 mm 0.00 in0.0 mm 0.00 in0.0 mm
04:00 AM 57.0°F13.9°C 50.9°F10.5°C 80% Calm Calm 1.6 mph2.6 kmh 30.58 in1035.6 mb 0.00 in0.0 mm 0.00 in0.0 mm 0.00 in0.0 mm
04:05 AM 57.0°F13.9°C 50.9°F10.5°C 80% Calm Calm 0.7 mph1.1 kmh 30.13 in1020.3 mb 0.00 in0.0 mm 0.00 in0.0 mm 0.00 in0.0 mm
04:15 AM 57.0°F13.9°C 51.2°F10.7°C 81% Calm Calm 1.6 mph2.6 kmh 30.57 in1035.2 mb 0.00 in0.0 mm 0.00 in0.0 mm 0.00 in0.0 mm
04:30 AM 57.0°F13.9°C 51.2°F10.7°C 81% Calm Calm 1.6 mph2.6 kmh 30.57 in1035.2 mb 0.00 in0.0 mm 0.00 in0.0 mm 0.00 in0.0 mm
04:35 AM 57.0°F13.9°C 51.2°F10.7°C 81% Calm Calm 0.7 mph1.1 kmh 30.13 in1020.3 mb 0.00 in0.0 mm 0.00 in0.0 mm 0.00 in0.0 mm
04:45 AM 57.0°F13.9°C 51.2°F10.7°C 81% Calm Calm 0.7 mph1.1 kmh 30.57 in1035.2 mb 0.00 in0.0 mm 0.00 in0.0 mm 0.00 in0.0 mm
05:00 AM 57.2°F14.0°C 51.4°F10.8°C 81% 0.7 mph S1.1 kmh S 2.2 mph3.5 kmh 30.58 in1035.6 mb 0.00 in0.0 mm 0.00 in0.0 mm 0.00 in0.0 mm
05:05 AM 57.2°F14.0°C 51.4°F10.8°C 81% Calm Calm 0.7 mph1.1 kmh 30.14 in1020.7 mb 0.00 in0.0 mm 0.00 in0.0 mm 0.00 in0.0 mm
05:15 AM 57.2°F14.0°C 51.1°F10.6°C 80% Calm Calm 2.2 mph3.5 kmh 30.58 in1035.6 mb 0.00 in0.0 mm 0.00 in0.0 mm 0.00 in0.0 mm
05:30 AM 57.2°F14.0°C 51.1°F10.6°C 80% Calm Calm 1.6 mph2.6 kmh 30.58 in1035.6 mb 0.00 in0.0 mm 0.00 in0.0 mm 0.00 in0.0 mm
05:35 AM 57.2°F14.0°C 51.1°F10.6°C 80% Calm Calm -- 30.14 in1020.7 mb 0.00 in0.0 mm 0.00 in0.0 mm 0.00 in0.0 mm
05:45 AM 57.6°F14.2°C 51.4°F10.8°C 80% 0.7 mph S1.1 kmh S 2.2 mph3.5 kmh 30.57 in1035.2 mb 0.00 in0.0 mm 0.00 in0.0 mm 0.00 in0.0 mm
06:00 AM 57.9°F14.4°C 51.8°F11.0°C 80% 0.7 mph S1.1 kmh S 1.6 mph2.6 kmh 30.58 in1035.6 mb 0.00 in0.0 mm 0.00 in0.0 mm 0.00 in0.0 mm
06:05 AM 57.9°F14.4°C 51.8°F11.0°C 80% 0.7 mph S1.1 kmh S 1.6 mph2.6 kmh 30.14 in1020.7 mb 0.00 in0.0 mm 0.00 in0.0 mm 0.00 in0.0 mm
06:15 AM 58.1°F14.5°C 52.0°F11.1°C 80% 0.7 mph S1.1 kmh S 2.2 mph3.5 kmh 30.58 in1035.6 mb 0.00 in0.0 mm 0.00 in0.0 mm 0.00 in0.0 mm
06:30 AM 58.5°F14.7°C 51.6°F10.9°C 78% 1.6 mph S2.6 kmh S 3.8 mph6.1 kmh 30.58 in1035.6 mb 0.00 in0.0 mm 0.00 in0.0 mm 0.00 in0.0 mm
06:35 AM 58.5°F14.7°C 51.6°F10.9°C 78% 2.2 mph SW3.5 kmh SW 3.1 mph5.0 kmh 30.14 in1020.7 mb 0.00 in0.0 mm 0.00 in0.0 mm 0.00 in0.0 mm
06:45 AM 59.0°F15.0°C 51.4°F10.8°C 76% 3.8 mph S6.1 kmh S 5.4 mph8.7 kmh 30.58 in1035.6 mb 0.00 in0.0 mm 0.00 in0.0 mm 0.00 in0.0 mm
07:00 AM 59.7°F15.4°C 51.8°F11.0°C 75% 0.7 mph SW1.1 kmh SW 3.1 mph5.0 kmh 30.59 in1035.9 mb 0.00 in0.0 mm 0.00 in0.0 mm 0.00 in0.0 mm
07:05 AM 59.7°F15.4°C 51.8°F11.0°C 75% 0.7 mph SW1.1 kmh SW 3.1 mph5.0 kmh 30.13 in1020.3 mb 0.00 in0.0 mm 0.00 in0.0 mm 0.00 in0.0 mm
07:15 AM 61.2°F16.2°C 51.7°F10.9°C 71% 2.2 mph SSW3.5 kmh SSW 4.5 mph7.2 kmh 30.58 in1035.6 mb 0.00 in0.0 mm 0.00 in0.0 mm 0.00 in0.0 mm
07:30 AM 62.2°F16.8°C 52.3°F11.3°C 70% 0.7 mph SSW1.1 kmh SSW 4.5 mph7.2 kmh 30.59 in1035.9 mb 0.00 in0.0 mm 0.00 in0.0 mm 0.00 in0.0 mm
07:35 AM 62.1°F16.7°C 52.2°F11.2°C 70% 0.7 mph SW1.1 kmh SW 1.6 mph2.6 kmh 30.14 in1020.7 mb 0.00 in0.0 mm 0.00 in0.0 mm 0.00 in0.0 mm
07:45 AM 62.6°F17.0°C 51.9°F11.1°C 68% 1.6 mph SSW2.6 kmh SSW 3.1 mph5.0 kmh 30.59 in1035.9 mb 0.00 in0.0 mm 0.00 in0.0 mm 0.00 in0.0 mm
08:00 AM 64.0°F17.8°C 50.8°F10.4°C 62% 6.0 mph SSW9.7 kmh SSW 7.6 mph12.2 kmh 30.57 in1035.2 mb 0.00 in0.0 mm 0.00 in0.0 mm 0.00 in0.0 mm
08:05 AM 63.9°F17.7°C 50.6°F10.3°C 62% 4.5 mph S7.2 kmh S 6.0 mph9.7 kmh 30.14 in1020.7 mb 0.00 in0.0 mm 0.00 in0.0 mm 0.00 in0.0 mm
08:15 AM 64.8°F18.2°C 49.2°F9.6°C 57% 3.8 mph SSW6.1 kmh SSW 6.9 mph11.1 kmh 30.58 in1035.6 mb 0.00 in0.0 mm 0.00 in0.0 mm 0.00 in0.0 mm
08:30 AM 65.5°F18.6°C 49.8°F9.9°C 57% 2.2 mph SW3.5 kmh SW 6.0 mph9.7 kmh 30.58 in1035.6 mb 0.00 in0.0 mm 0.00 in0.0 mm 0.00 in0.0 mm
08:35 AM 65.3°F18.5°C 49.7°F9.8°C 57% 3.1 mph SW5.0 kmh SW 4.5 mph7.2 kmh 30.14 in1020.7 mb 0.00 in0.0 mm 0.00 in0.0 mm 0.00 in0.0 mm
08:45 AM 65.7°F18.7°C 49.0°F9.4°C 55% 0.7 mph SW1.1 kmh SW 5.4 mph8.7 kmh 30.59 in1035.9 mb 0.00 in0.0 mm 0.00 in0.0 mm 0.00 in0.0 mm
09:00 AM 66.6°F19.2°C 49.9°F9.9°C 55% 3.1 mph SSW5.0 kmh SSW 4.5 mph7.2 kmh 30.58 in1035.6 mb 0.00 in0.0 mm 0.00 in0.0 mm 0.00 in0.0 mm
09:05 AM 66.4°F19.1°C 49.7°F9.8°C 55% 1.6 mph S2.6 kmh S 2.2 mph3.5 kmh 30.14 in1020.7 mb 0.00 in0.0 mm 0.00 in0.0 mm 0.00 in0.0 mm
09:15 AM 67.3°F19.6°C 49.0°F9.4°C 52% 6.0 mph SW9.7 kmh SW 7.6 mph12.2 kmh 30.58 in1035.6 mb 0.00 in0.0 mm 0.00 in0.0 mm 0.00 in0.0 mm
09:30 AM 67.8°F19.9°C 49.0°F9.4°C 51% 3.1 mph SSW5.0 kmh SSW 5.4 mph8.7 kmh 30.58 in1035.6 mb 0.00 in0.0 mm 0.00 in0.0 mm 0.00 in0.0 mm
09:35 AM 67.8°F19.9°C 49.0°F9.4°C 51% 3.8 mph S6.1 kmh S 5.4 mph8.7 kmh 30.13 in1020.3 mb 0.00 in0.0 mm 0.00 in0.0 mm 0.00 in0.0 mm
09:45 AM 69.4°F20.8°C 50.0°F10.0°C 50% 3.1 mph SSW5.0 kmh SSW 6.9 mph11.1 kmh 30.58 in1035.6 mb 0.00 in0.0 mm 0.00 in0.0 mm 0.00 in0.0 mm
10:00 AM 69.4°F20.8°C 50.0°F10.0°C 50% 2.2 mph SW3.5 kmh SW 7.6 mph12.2 kmh 30.57 in1035.2 mb 0.00 in0.0 mm 0.00 in0.0 mm 0.00 in0.0 mm
10:05 AM 69.4°F20.8°C 49.4°F9.7°C 49% 0.7 mph S1.1 kmh S 2.2 mph3.5 kmh 30.13 in1020.3 mb 0.00 in0.0 mm 0.00 in0.0 mm 0.00 in0.0 mm
10:15 AM 69.8°F21.0°C 49.2°F9.6°C 48% 3.8 mph SSW6.1 kmh SSW 9.2 mph14.8 kmh 30.56 in1034.9 mb 0.00 in0.0 mm 0.00 in0.0 mm 0.00 in0.0 mm
10:30 AM 70.5°F21.4°C 48.1°F8.9°C 45% 2.2 mph S3.5 kmh S 9.8 mph15.8 kmh 30.57 in1035.2 mb 0.00 in0.0 mm 0.00 in0.0 mm 0.00 in0.0 mm
10:35 AM 70.5°F21.4°C 48.1°F8.9°C 45% 3.8 mph W6.1 kmh W 5.4 mph8.7 kmh 30.13 in1020.3 mb 0.00 in0.0 mm 0.00 in0.0 mm 0.00 in0.0 mm
10:45 AM 70.7°F21.5°C 48.3°F9.1°C 45% 4.5 mph SSW7.2 kmh SSW 7.6 mph12.2 kmh 30.56 in1034.9 mb 0.00 in0.0 mm 0.00 in0.0 mm 0.00 in0.0 mm
11:00 AM 71.2°F21.8°C 48.8°F9.3°C 45% 6.9 mph SSW11.1 kmh SSW 10.7 mph17.2 kmh 30.57 in1035.2 mb 0.00 in0.0 mm 0.00 in0.0 mm 0.00 in0.0 mm
11:05 AM 71.2°F21.8°C 48.2°F9.0°C 44% 6.9 mph SW11.1 kmh SW 9.8 mph15.8 kmh 30.12 in1020.0 mb 0.00 in0.0 mm 0.00 in0.0 mm 0.00 in0.0 mm
11:15 AM 71.4°F21.9°C 49.6°F9.8°C 46% 3.8 mph SW6.1 kmh SW 7.6 mph12.2 kmh 30.56 in1034.9 mb 0.00 in0.0 mm 0.00 in0.0 mm 0.00 in0.0 mm
11:30 AM 72.1°F22.3°C 49.6°F9.8°C 45% 7.6 mph SW12.2 kmh SW 11.4 mph18.3 kmh 30.55 in1034.5 mb 0.00 in0.0 mm 0.00 in0.0 mm 0.00 in0.0 mm
11:35 AM 72.1°F22.3°C 49.0°F9.4°C 44% 7.6 mph W12.2 kmh W 11.4 mph18.3 kmh 30.11 in1019.6 mb 0.00 in0.0 mm 0.00 in0.0 mm 0.00 in0.0 mm
11:45 AM 72.3°F22.4°C 49.2°F9.6°C 44% 4.5 mph SSW7.2 kmh SSW 11.4 mph18.3 kmh 30.55 in1034.5 mb 0.00 in0.0 mm 0.00 in0.0 mm 0.00 in0.0 mm
12:00 PM 73.0°F22.8°C 48.6°F9.2°C 42% 9.8 mph WSW15.8 kmh WSW 12.1 mph19.5 kmh 30.55 in1034.5 mb 0.00 in0.0 mm 0.00 in0.0 mm 0.00 in0.0 mm
12:05 PM 72.9°F22.7°C 48.4°F9.1°C 42% 6.9 mph W11.1 kmh W 7.6 mph12.2 kmh 30.11 in1019.6 mb 0.00 in0.0 mm 0.00 in0.0 mm 0.00 in0.0 mm
12:15 PM 72.5°F22.5°C 48.1°F8.9°C 42% 3.8 mph W6.1 kmh W 6.9 mph11.1 kmh 30.55 in1034.5 mb 0.00 in0.0 mm 0.00 in0.0 mm 0.00 in0.0 mm
12:30 PM 73.6°F23.1°C 49.1°F9.5°C 42% 4.5 mph SSW7.2 kmh SSW 10.7 mph17.2 kmh 30.54 in1034.2 mb 0.00 in0.0 mm 0.00 in0.0 mm 0.00 in0.0 mm
12:35 PM 73.6°F23.1°C 49.1°F9.5°C 42% 5.4 mph W8.7 kmh W 6.0 mph9.7 kmh 30.09 in1019.0 mb 0.00 in0.0 mm 0.00 in0.0 mm 0.00 in0.0 mm
12:45 PM 74.3°F23.5°C 49.1°F9.5°C 41% 5.4 mph S8.7 kmh S 8.3 mph13.4 kmh 30.54 in1034.2 mb 0.00 in0.0 mm 0.00 in0.0 mm 0.00 in0.0 mm
01:00 PM 74.7°F23.7°C 49.4°F9.7°C 41% 6.9 mph SW11.1 kmh SW 9.8 mph15.8 kmh 30.53 in1033.9 mb 0.00 in0.0 mm 0.00 in0.0 mm 0.00 in0.0 mm
01:05 PM 74.7°F23.7°C 49.4°F9.7°C 41% 6.9 mph SW11.1 kmh SW 9.8 mph15.8 kmh 30.09 in1019.0 mb 0.00 in0.0 mm 0.00 in0.0 mm 0.00 in0.0 mm
01:15 PM 74.1°F23.4°C 48.2°F9.0°C 40% 2.2 mph SW3.5 kmh SW 7.6 mph12.2 kmh 30.53 in1033.9 mb 0.00 in0.0 mm 0.00 in0.0 mm 0.00 in0.0 mm
01:30 PM 75.0°F23.9°C 49.1°F9.5°C 40% 4.5 mph SW7.2 kmh SW 9.2 mph14.8 kmh 30.52 in1033.5 mb 0.00 in0.0 mm 0.00 in0.0 mm 0.00 in0.0 mm
01:35 PM 75.0°F23.9°C 49.1°F9.5°C 40% 3.1 mph NW5.0 kmh NW 3.8 mph6.1 kmh 30.08 in1018.6 mb 0.00 in0.0 mm 0.00 in0.0 mm 0.00 in0.0 mm
01:45 PM 75.7°F24.3°C 49.7°F9.8°C 40% 4.5 mph S7.2 kmh S 14.5 mph23.3 kmh 30.52 in1033.5 mb 0.00 in0.0 mm 0.00 in0.0 mm 0.00 in0.0 mm
02:00 PM 74.3°F23.5°C 48.4°F9.1°C 40% 3.1 mph WSW5.0 kmh WSW 7.6 mph12.2 kmh 30.52 in1033.5 mb 0.00 in0.0 mm 0.00 in0.0 mm 0.00 in0.0 mm
02:05 PM 74.3°F23.5°C 48.4°F9.1°C 40% 5.4 mph N8.7 kmh N 6.0 mph9.7 kmh 30.07 in1018.3 mb 0.00 in0.0 mm 0.00 in0.0 mm 0.00 in0.0 mm
02:15 PM 73.2°F22.9°C 48.1°F8.9°C 41% 0.7 mph SW1.1 kmh SW 6.0 mph9.7 kmh 30.51 in1033.2 mb 0.00 in0.0 mm 0.00 in0.0 mm 0.00 in0.0 mm
02:30 PM 72.3°F22.4°C 49.8°F9.9°C 45% 2.2 mph W3.5 kmh W 3.8 mph6.1 kmh 30.51 in1033.2 mb 0.00 in0.0 mm 0.00 in0.0 mm 0.00 in0.0 mm
02:35 PM 72.3°F22.4°C 49.8°F9.9°C 45% 1.6 mph W2.6 kmh W 2.2 mph3.5 kmh 30.07 in1018.3 mb 0.00 in0.0 mm 0.00 in0.0 mm 0.00 in0.0 mm
02:45 PM 72.7°F22.6°C 47.6°F8.7°C 41% 1.6 mph NNW2.6 kmh NNW 5.4 mph8.7 kmh 30.51 in1033.2 mb 0.00 in0.0 mm 0.00 in0.0 mm 0.00 in0.0 mm
03:00 PM 73.8°F23.2°C 47.9°F8.8°C 40% 4.5 mph SW7.2 kmh SW 8.3 mph13.4 kmh 30.50 in1032.8 mb 0.00 in0.0 mm 0.00 in0.0 mm 0.00 in0.0 mm
03:05 PM 73.6°F23.1°C 48.4°F9.1°C 41% 6.0 mph S9.7 kmh S 8.3 mph13.4 kmh 30.06 in1017.9 mb 0.00 in0.0 mm 0.00 in0.0 mm 0.00 in0.0 mm
03:15 PM 73.9°F23.3°C 48.1°F8.9°C 40% 2.2 mph SSW3.5 kmh SSW 7.6 mph12.2 kmh 30.49 in1032.5 mb 0.00 in0.0 mm 0.00 in0.0 mm 0.00 in0.0 mm
03:30 PM 75.2°F24.0°C 47.8°F8.8°C 38% 3.8 mph S6.1 kmh S 6.0 mph9.7 kmh 30.49 in1032.5 mb 0.00 in0.0 mm 0.00 in0.0 mm 0.00 in0.0 mm
03:35 PM 75.2°F24.0°C 48.5°F9.2°C 39% 3.8 mph S6.1 kmh S 6.0 mph9.7 kmh 30.05 in1017.6 mb 0.00 in0.0 mm 0.00 in0.0 mm 0.00 in0.0 mm
03:45 PM 75.4°F24.1°C 48.0°F8.9°C 38% 1.6 mph SSW2.6 kmh SSW 9.2 mph14.8 kmh 30.49 in1032.5 mb 0.00 in0.0 mm 0.00 in0.0 mm 0.00 in0.0 mm
04:00 PM 75.2°F24.0°C 47.1°F8.4°C 37% 2.2 mph S3.5 kmh S 4.5 mph7.2 kmh 30.48 in1032.2 mb 0.00 in0.0 mm 0.00 in0.0 mm 0.00 in0.0 mm
04:05 PM 75.2°F24.0°C 47.1°F8.4°C 37% 2.2 mph SW3.5 kmh SW 3.8 mph6.1 kmh 30.04 in1017.3 mb 0.00 in0.0 mm 0.00 in0.0 mm 0.00 in0.0 mm
04:15 PM 75.0°F23.9°C 47.7°F8.7°C 38% 2.2 mph S3.5 kmh S 4.5 mph7.2 kmh 30.48 in1032.2 mb 0.00 in0.0 mm 0.00 in0.0 mm 0.00 in0.0 mm
04:30 PM 74.3°F23.5°C 47.0°F8.3°C 38% 3.1 mph SSW5.0 kmh SSW 7.6 mph12.2 kmh 30.48 in1032.2 mb 0.00 in0.0 mm 0.00 in0.0 mm 0.00 in0.0 mm
04:35 PM 74.3°F23.5°C 47.0°F8.3°C 38% 3.1 mph S5.0 kmh S 3.8 mph6.1 kmh 30.04 in1017.3 mb 0.00 in0.0 mm 0.00 in0.0 mm 0.00 in0.0 mm
04:45 PM 73.8°F23.2°C 47.9°F8.8°C 40% 2.2 mph SSW3.5 kmh SSW 6.0 mph9.7 kmh 30.48 in1032.2 mb 0.00 in0.0 mm 0.00 in0.0 mm 0.00 in0.0 mm
05:00 PM 72.9°F22.7°C 47.1°F8.4°C 40% 2.2 mph S3.5 kmh S 6.9 mph11.1 kmh 30.48 in1032.2 mb 0.00 in0.0 mm 0.00 in0.0 mm 0.00 in0.0 mm
05:05 PM 73.0°F22.8°C 47.3°F8.5°C 40% 3.8 mph S6.1 kmh S 6.9 mph11.1 kmh 30.04 in1017.3 mb 0.00 in0.0 mm 0.00 in0.0 mm 0.00 in0.0 mm
05:15 PM 72.0°F22.2°C 48.9°F9.4°C 44% 3.8 mph S6.1 kmh S 5.4 mph8.7 kmh 30.48 in1032.2 mb 0.00 in0.0 mm 0.00 in0.0 mm 0.00 in0.0 mm
05:30 PM 70.9°F21.6°C 49.1°F9.5°C 46% 1.6 mph S2.6 kmh S 4.5 mph7.2 kmh 30.47 in1031.8 mb 0.00 in0.0 mm 0.00 in0.0 mm 0.00 in0.0 mm
05:35 PM 71.1°F21.7°C 49.2°F9.6°C 46% 2.2 mph S3.5 kmh S 2.2 mph3.5 kmh 30.03 in1016.9 mb 0.00 in0.0 mm 0.00 in0.0 mm 0.00 in0.0 mm
05:45 PM 70.2°F21.2°C 50.1°F10.1°C 49% 2.2 mph S3.5 kmh S 3.8 mph6.1 kmh 30.47 in1031.8 mb 0.00 in0.0 mm 0.00 in0.0 mm 0.00 in0.0 mm
06:00 PM 69.3°F20.7°C 49.8°F9.9°C 50% 0.7 mph S1.1 kmh S 3.1 mph5.0 kmh 30.47 in1031.8 mb 0.00 in0.0 mm 0.00 in0.0 mm 0.00 in0.0 mm
06:05 PM 69.3°F20.7°C 49.8°F9.9°C 50% 2.2 mph SE3.5 kmh SE 3.1 mph5.0 kmh 30.03 in1016.9 mb 0.00 in0.0 mm 0.00 in0.0 mm 0.00 in0.0 mm
06:15 PM 68.0°F20.0°C 50.2°F10.1°C 53% 0.7 mph S1.1 kmh S 3.1 mph5.0 kmh 30.47 in1031.8 mb 0.00 in0.0 mm 0.00 in0.0 mm 0.00 in0.0 mm
06:30 PM 66.9°F19.4°C 50.2°F10.1°C 55% 2.2 mph SE3.5 kmh SE 3.1 mph5.0 kmh 30.48 in1032.2 mb 0.00 in0.0 mm 0.00 in0.0 mm 0.00 in0.0 mm
06:35 PM 66.9°F19.4°C 50.2°F10.1°C 55% 2.2 mph SE3.5 kmh SE 3.1 mph5.0 kmh 30.03 in1016.9 mb 0.00 in0.0 mm 0.00 in0.0 mm 0.00 in0.0 mm
06:45 PM 65.8°F18.8°C 49.7°F9.8°C 56% 1.6 mph SE2.6 kmh SE 3.8 mph6.1 kmh 30.47 in1031.8 mb 0.00 in0.0 mm 0.00 in0.0 mm 0.00 in0.0 mm
07:00 PM 65.3°F18.5°C 50.1°F10.1°C 58% 1.6 mph SE2.6 kmh SE 3.8 mph6.1 kmh 30.47 in1031.8 mb 0.00 in0.0 mm 0.00 in0.0 mm 0.00 in0.0 mm
07:05 PM 65.3°F18.5°C 50.1°F10.1°C 58% 1.6 mph SE2.6 kmh SE 2.2 mph3.5 kmh 30.03 in1016.9 mb 0.00 in0.0 mm 0.00 in0.0 mm 0.00 in0.0 mm
07:15 PM 64.4°F18.0°C 50.2°F10.1°C 60% 1.6 mph S2.6 kmh S 3.1 mph5.0 kmh 30.47 in1031.8 mb 0.00 in0.0 mm 0.00 in0.0 mm 0.00 in0.0 mm
07:30 PM 63.7°F17.6°C 50.0°F10.0°C 61% 1.6 mph SSE2.6 kmh SSE 6.9 mph11.1 kmh 30.47 in1031.8 mb 0.00 in0.0 mm 0.00 in0.0 mm 0.00 in0.0 mm
07:35 PM 63.7°F17.6°C 50.0°F10.0°C 61% 3.1 mph S5.0 kmh S 3.8 mph6.1 kmh 30.03 in1016.9 mb 0.00 in0.0 mm 0.00 in0.0 mm 0.00 in0.0 mm
07:45 PM 63.1°F17.3°C 51.2°F10.7°C 65% 2.2 mph SE3.5 kmh SE 4.5 mph7.2 kmh 30.47 in1031.8 mb 0.00 in0.0 mm 0.00 in0.0 mm 0.00 in0.0 mm
08:00 PM 62.6°F17.0°C 50.7°F10.4°C 65% 2.2 mph SSE3.5 kmh SSE 4.5 mph7.2 kmh 30.47 in1031.8 mb 0.00 in0.0 mm 0.00 in0.0 mm 0.00 in0.0 mm
08:05 PM 62.6°F17.0°C 50.7°F10.4°C 65% 1.6 mph SE2.6 kmh SE 3.1 mph5.0 kmh 30.02 in1016.6 mb 0.00 in0.0 mm 0.00 in0.0 mm 0.00 in0.0 mm
08:15 PM 62.2°F16.8°C 51.1°F10.6°C 67% 2.2 mph SE3.5 kmh SE 3.8 mph6.1 kmh 30.47 in1031.8 mb 0.00 in0.0 mm 0.00 in0.0 mm 0.00 in0.0 mm
08:30 PM 61.7°F16.5°C 51.4°F10.8°C 69% 0.7 mph SE1.1 kmh SE 3.8 mph6.1 kmh 30.47 in1031.8 mb 0.00 in0.0 mm 0.00 in0.0 mm 0.00 in0.0 mm
08:35 PM 61.7°F16.5°C 51.4°F10.8°C 69% 2.2 mph SE3.5 kmh SE 3.1 mph5.0 kmh 30.02 in1016.6 mb 0.00 in0.0 mm 0.00 in0.0 mm 0.00 in0.0 mm
08:45 PM 61.0°F16.1°C 51.1°F10.6°C 70% 1.6 mph SE2.6 kmh SE 3.1 mph5.0 kmh 30.46 in1031.5 mb 0.00 in0.0 mm 0.00 in0.0 mm 0.00 in0.0 mm
09:00 PM 60.6°F15.9°C 50.8°F10.4°C 70% 1.6 mph SE2.6 kmh SE 3.8 mph6.1 kmh 30.46 in1031.5 mb 0.00 in0.0 mm 0.00 in0.0 mm 0.00 in0.0 mm
09:05 PM 60.6°F15.9°C 50.8°F10.4°C 70% 2.2 mph SE3.5 kmh SE 3.1 mph5.0 kmh 30.01 in1016.3 mb 0.00 in0.0 mm 0.00 in0.0 mm 0.00 in0.0 mm
09:15 PM 60.3°F15.7°C 50.8°F10.4°C 71% 2.2 mph SE3.5 kmh SE 3.8 mph6.1 kmh 30.45 in1031.2 mb 0.00 in0.0 mm 0.00 in0.0 mm 0.00 in0.0 mm
09:30 PM 60.1°F15.6°C 50.6°F10.3°C 71% 3.1 mph SE5.0 kmh SE 3.8 mph6.1 kmh 30.45 in1031.2 mb 0.00 in0.0 mm 0.00 in0.0 mm 0.00 in0.0 mm
09:35 PM 60.1°F15.6°C 50.6°F10.3°C 71% 1.6 mph SE2.6 kmh SE 2.2 mph3.5 kmh 30.02 in1016.6 mb 0.00 in0.0 mm 0.00 in0.0 mm 0.00 in0.0 mm
09:45 PM 60.1°F15.6°C 50.3°F10.2°C 70% 2.2 mph SE3.5 kmh SE 4.5 mph7.2 kmh 30.46 in1031.5 mb 0.00 in0.0 mm 0.00 in0.0 mm 0.00 in0.0 mm
10:00 PM 60.1°F15.6°C 50.3°F10.2°C 70% 2.2 mph SE3.5 kmh SE 4.5 mph7.2 kmh 30.45 in1031.2 mb 0.00 in0.0 mm 0.00 in0.0 mm 0.00 in0.0 mm
10:05 PM 60.1°F15.6°C 50.3°F10.2°C 70% 2.2 mph SE3.5 kmh SE 3.8 mph6.1 kmh 30.01 in1016.3 mb 0.00 in0.0 mm 0.00 in0.0 mm 0.00 in0.0 mm
10:15 PM 59.9°F15.5°C 50.1°F10.1°C 70% 2.2 mph SE3.5 kmh SE 4.5 mph7.2 kmh 30.45 in1031.2 mb 0.00 in0.0 mm 0.00 in0.0 mm 0.00 in0.0 mm
10:30 PM 59.4°F15.2°C 49.6°F9.8°C 70% 0.7 mph SE1.1 kmh SE 3.8 mph6.1 kmh 30.45 in1031.2 mb 0.00 in0.0 mm 0.00 in0.0 mm 0.00 in0.0 mm
10:35 PM 59.4°F15.2°C 49.6°F9.8°C 70% 0.7 mph SE1.1 kmh SE 1.6 mph2.6 kmh 30.01 in1016.3 mb 0.00 in0.0 mm 0.00 in0.0 mm 0.00 in0.0 mm
10:45 PM 58.8°F14.9°C 49.4°F9.7°C 71% 1.6 mph SE2.6 kmh SE 3.1 mph5.0 kmh 30.45 in1031.2 mb 0.00 in0.0 mm 0.00 in0.0 mm 0.00 in0.0 mm
11:00 PM 58.3°F14.6°C 49.3°F9.6°C 72% 2.2 mph SE3.5 kmh SE 3.8 mph6.1 kmh 30.45 in1031.2 mb 0.00 in0.0 mm 0.00 in0.0 mm 0.00 in0.0 mm
11:05 PM 58.5°F14.7°C 49.5°F9.7°C 72% 2.2 mph SE3.5 kmh SE 3.1 mph5.0 kmh 30.01 in1016.3 mb 0.00 in0.0 mm 0.00 in0.0 mm 0.00 in0.0 mm
11:15 PM 57.9°F14.4°C 48.9°F9.4°C 72% 2.2 mph SE3.5 kmh SE 4.5 mph7.2 kmh 30.44 in1030.8 mb 0.00 in0.0 mm 0.00 in0.0 mm 0.00 in0.0 mm
11:30 PM 57.9°F14.4°C 48.9°F9.4°C 72% 1.6 mph SE2.6 kmh SE 3.8 mph6.1 kmh 30.44 in1030.8 mb 0.00 in0.0 mm 0.00 in0.0 mm 0.00 in0.0 mm
11:35 PM 57.9°F14.4°C 48.9°F9.4°C 72% 1.6 mph SE2.6 kmh SE 2.2 mph3.5 kmh 30.01 in1016.3 mb 0.00 in0.0 mm 0.00 in0.0 mm 0.00 in0.0 mm
11:45 PM 57.4°F14.1°C 48.8°F9.3°C 73% 3.1 mph SSE5.0 kmh SSE 3.8 mph6.1 kmh 30.44 in1030.8 mb 0.00 in0.0 mm 0.00 in0.0 mm 0.00 in0.0 mm